createdAt,value
2019-05-02T00:00:47.529Z,90.30
2019-05-02T00:03:18.998Z,92.73
2019-05-02T00:05:49.123Z,96.87
2019-05-02T00:08:19.741Z,91.70
2019-05-02T00:10:50.271Z,92.03
2019-05-02T00:13:20.876Z,90.83
2019-05-02T00:15:51.780Z,100.73
2019-05-02T00:18:23.688Z,99.97
2019-05-02T00:20:57.177Z,100.23
2019-05-02T00:23:28.046Z,103.10
2019-05-02T00:25:58.288Z,91.77
2019-05-02T00:28:28.411Z,101.30
2019-05-02T00:30:58.581Z,98.17
2019-05-02T00:33:29.315Z,88.13
2019-05-02T00:36:00.832Z,90.33
2019-05-02T00:38:33.380Z,91.63
2019-05-02T00:41:04.057Z,95.00
2019-05-02T00:43:36.343Z,104.67
2019-05-02T00:46:06.414Z,95.50
2019-05-02T00:48:45.732Z,101.70
2019-05-02T00:51:15.793Z,97.73
2019-05-02T00:53:48.277Z,99.93
2019-05-02T00:56:17.581Z,98.10
2019-05-02T00:58:48.206Z,94.33
2019-05-02T01:01:39.180Z,108.13
2019-05-02T01:04:15.738Z,96.57
2019-05-02T01:06:49.392Z,101.23
2019-05-02T01:09:20.492Z,100.77
2019-05-02T01:11:50.604Z,99.57
2019-05-02T01:14:27.072Z,104.50
2019-05-02T01:16:56.290Z,98.33
2019-05-02T01:19:26.600Z,103.80
2019-05-02T01:21:56.731Z,107.63
2019-05-02T01:24:26.968Z,105.30
2019-05-02T01:27:14.903Z,101.13
2019-05-02T01:29:50.475Z,101.47
2019-05-02T01:32:43.613Z,103.00
2019-05-02T01:35:19.409Z,103.87
2019-05-02T01:38:16.392Z,102.10
2019-05-02T01:40:53.309Z,105.73
2019-05-02T01:43:31.259Z,107.43
2019-05-02T01:46:01.397Z,109.43
2019-05-02T01:48:31.814Z,110.33
2019-05-02T01:51:04.384Z,103.77
2019-05-02T01:53:35.636Z,113.13
2019-05-02T01:56:05.995Z,115.17
2019-05-02T01:58:36.222Z,114.20
2019-05-02T02:01:06.770Z,116.27
2019-05-02T02:03:40.516Z,118.87
2019-05-02T02:06:10.531Z,117.10
2019-05-02T02:08:40.696Z,111.93
2019-05-02T02:11:10.766Z,109.77
2019-05-02T02:13:40.912Z,108.03
2019-05-02T02:16:11.060Z,117.07
2019-05-02T02:18:49.245Z,111.27
2019-05-02T02:21:28.800Z,108.67
2019-05-02T02:24:03.782Z,113.03
2019-05-02T02:26:33.988Z,127.17
2019-05-02T02:29:07.936Z,119.10
2019-05-02T02:31:39.688Z,113.60
2019-05-02T02:34:07.957Z,120.10
2019-05-02T02:36:38.542Z,112.83
2019-05-02T02:39:14.006Z,103.90
2019-05-02T02:41:45.436Z,109.90
2019-05-02T02:44:39.912Z,107.10
2019-05-02T02:47:12.137Z,100.27
2019-05-02T02:49:38.855Z,117.37
2019-05-02T02:52:27.961Z,120.23
2019-05-02T02:54:58.047Z,109.63
2019-05-02T02:57:28.630Z,108.60
2019-05-02T03:00:06.821Z,122.50
2019-05-02T03:02:30.556Z,116.20
2019-05-02T03:05:00.821Z,122.30
2019-05-02T03:07:33.089Z,122.70
2019-05-02T03:10:15.131Z,124.03
2019-05-02T03:13:08.526Z,126.53
2019-05-02T03:15:47.526Z,133.80
2019-05-02T03:18:17.743Z,146.37
2019-05-02T03:20:47.803Z,141.60
2019-05-02T03:23:21.662Z,158.13
2019-05-02T03:25:51.390Z,149.67
2019-05-02T03:28:25.128Z,143.23
2019-05-02T03:30:57.355Z,147.87
2019-05-02T03:33:28.227Z,163.80
2019-05-02T03:35:58.399Z,157.33
2019-05-02T03:38:32.283Z,149.60
2019-05-02T03:41:01.106Z,141.23
2019-05-02T03:43:31.329Z,140.93
2019-05-02T03:46:01.704Z,138.60
2019-05-02T03:48:31.826Z,143.43
2019-05-02T03:51:05.107Z,153.63
2019-05-02T03:53:34.208Z,161.37
2019-05-02T03:56:10.477Z,144.00
2019-05-02T03:58:36.570Z,151.97
2019-05-02T04:01:11.393Z,159.77
2019-05-02T04:03:43.805Z,148.90
2019-05-02T04:06:21.122Z,182.53
2019-05-02T04:08:46.110Z,180.73
2019-05-02T04:11:38.025Z,175.40
2019-05-02T04:14:01.219Z,179.67
2019-05-02T04:16:31.387Z,194.67
2019-05-02T04:19:07.859Z,176.13
2019-05-02T04:21:38.401Z,168.27
2019-05-02T04:24:13.728Z,158.23
2019-05-02T04:26:52.098Z,162.77
2019-05-02T04:29:16.065Z,175.23
2019-05-02T04:31:46.139Z,160.23
2019-05-02T04:34:17.871Z,154.73
2019-05-02T04:37:01.065Z,160.43
2019-05-02T04:39:28.448Z,159.30
2019-05-02T04:41:58.725Z,150.17
2019-05-02T04:44:39.288Z,144.70
2019-05-02T04:47:11.033Z,142.30
2019-05-02T04:49:35.831Z,124.67
2019-05-02T04:52:07.805Z,126.57
2019-05-02T04:54:38.915Z,115.23
2019-05-02T04:57:08.841Z,125.07
2019-05-02T04:59:40.307Z,136.23
2019-05-02T05:02:10.658Z,115.87
2019-05-02T05:04:46.012Z,123.73
2019-05-02T05:07:13.020Z,127.53
2019-05-02T05:09:47.875Z,152.83
2019-05-02T05:12:17.661Z,141.87
2019-05-02T05:14:47.537Z,137.40
2019-05-02T05:17:19.979Z,135.13
2019-05-02T05:19:50.021Z,135.07
2019-05-02T05:22:20.185Z,142.23
2019-05-02T05:24:58.256Z,139.27
2019-05-02T05:27:28.502Z,132.27
2019-05-02T05:30:05.777Z,136.30
2019-05-02T05:32:31.084Z,119.60
2019-05-02T05:35:03.435Z,107.17
2019-05-02T05:37:33.494Z,108.30
2019-05-02T05:40:03.859Z,133.70
2019-05-02T05:42:33.901Z,124.03
2019-05-02T05:45:08.990Z,116.80
2019-05-02T05:47:37.733Z,114.10
2019-05-02T05:50:08.487Z,108.57
2019-05-02T05:52:42.389Z,106.23
2019-05-02T05:55:12.836Z,100.00
2019-05-02T05:57:42.464Z,96.93
2019-05-02T06:00:18.690Z,95.37
2019-05-02T06:02:53.899Z,91.47
2019-05-02T06:05:21.293Z,100.60
2019-05-02T06:07:51.577Z,95.87
2019-05-02T06:10:24.888Z,92.73
2019-05-02T06:12:57.009Z,87.27
2019-05-02T06:15:27.321Z,82.53
2019-05-02T06:18:00.014Z,75.33
2019-05-02T06:20:30.632Z,79.60
2019-05-02T06:23:03.479Z,69.03
2019-05-02T06:25:36.593Z,74.93
2019-05-02T06:28:06.835Z,72.50
2019-05-02T06:30:37.450Z,67.23
2019-05-02T06:33:07.810Z,66.40
2019-05-02T06:35:38.066Z,59.27
2019-05-02T06:38:08.134Z,65.90
2019-05-02T06:40:39.426Z,66.40
2019-05-02T06:43:11.425Z,62.63
2019-05-02T06:45:41.767Z,71.33
2019-05-02T06:48:17.229Z,78.30
2019-05-02T06:50:43.837Z,80.57
2019-05-02T06:53:16.071Z,74.30
2019-05-02T06:55:46.191Z,77.07
2019-05-02T06:58:16.338Z,82.50
2019-05-02T07:00:57.396Z,81.40
2019-05-02T07:03:21.508Z,83.33
2019-05-02T07:05:51.697Z,80.33
2019-05-02T07:08:21.774Z,80.80
2019-05-02T07:10:55.858Z,81.77
2019-05-02T07:13:24.046Z,74.70
2019-05-02T07:16:15.571Z,73.30
2019-05-02T07:19:21.795Z,73.83
2019-05-02T07:21:53.140Z,74.67
2019-05-02T07:24:25.282Z,71.03
2019-05-02T07:26:56.794Z,73.90
2019-05-02T07:29:27.313Z,68.43
2019-05-02T07:31:57.455Z,71.17
2019-05-02T07:34:27.560Z,68.57
2019-05-02T07:36:57.705Z,65.83
2019-05-02T07:39:27.765Z,65.43
2019-05-02T07:42:00.621Z,60.37
2019-05-02T07:44:32.631Z,57.60
2019-05-02T07:47:02.633Z,64.07
2019-05-02T07:49:34.267Z,58.53
2019-05-02T07:52:04.850Z,62.83
2019-05-02T07:54:34.935Z,58.70
2019-05-02T07:57:05.479Z,60.70
2019-05-02T07:59:35.608Z,61.87
2019-05-02T08:02:05.845Z,68.50
2019-05-02T08:04:35.868Z,64.90
2019-05-02T08:07:06.099Z,59.83
2019-05-02T08:09:39.270Z,58.93
2019-05-02T08:12:08.116Z,62.20
2019-05-02T08:14:38.240Z,62.63
2019-05-02T08:17:16.346Z,65.90
2019-05-02T08:19:41.913Z,62.47
2019-05-02T08:22:13.792Z,62.73
2019-05-02T08:24:43.756Z,63.43
2019-05-02T08:27:38.719Z,56.70
2019-05-02T08:30:14.561Z,56.30
2019-05-02T08:32:44.813Z,60.77
2019-05-02T08:35:16.514Z,62.87
2019-05-02T08:37:46.632Z,61.03
2019-05-02T08:40:16.837Z,58.27
2019-05-02T08:42:50.255Z,57.83
2019-05-02T08:45:20.343Z,56.83
2019-05-02T08:47:50.414Z,59.67
2019-05-02T08:50:20.717Z,57.53
2019-05-02T08:52:51.542Z,58.37
2019-05-02T08:55:21.602Z,57.00
2019-05-02T08:57:51.748Z,57.83
2019-05-02T09:00:21.830Z,64.10
2019-05-02T09:02:52.371Z,63.80
2019-05-02T09:05:22.433Z,70.23
2019-05-02T09:07:54.148Z,65.57
2019-05-02T09:10:24.176Z,61.57
2019-05-02T09:12:56.596Z,65.93
2019-05-02T09:15:26.758Z,63.47
2019-05-02T09:17:56.931Z,65.43
2019-05-02T09:20:29.516Z,65.50
2019-05-02T09:23:01.615Z,63.27
2019-05-02T09:25:32.378Z,53.10
2019-05-02T09:28:02.625Z,51.60
2019-05-02T09:30:32.980Z,53.23
2019-05-02T09:33:06.578Z,48.23
2019-05-02T09:35:35.346Z,57.30
2019-05-02T09:38:05.573Z,56.20
2019-05-02T09:40:35.786Z,54.03
2019-05-02T09:43:05.963Z,50.90
2019-05-02T09:45:37.558Z,52.57
2019-05-02T09:48:08.367Z,57.30
2019-05-02T09:50:38.629Z,52.47
2019-05-02T09:53:13.134Z,63.10
2019-05-02T09:55:42.312Z,58.57
2019-05-02T09:58:18.993Z,59.07
2019-05-02T10:00:52.554Z,58.73
2019-05-02T10:03:24.809Z,62.17
2019-05-02T10:05:54.945Z,63.67
2019-05-02T10:08:25.081Z,63.83
2019-05-02T10:10:55.501Z,71.30
2019-05-02T10:13:25.644Z,66.53
2019-05-02T10:15:56.620Z,66.27
2019-05-02T10:18:30.157Z,73.33
2019-05-02T10:21:03.151Z,77.43
2019-05-02T10:23:33.626Z,77.83
2019-05-02T10:26:03.996Z,87.33
2019-05-02T10:28:34.150Z,77.80
2019-05-02T10:31:05.038Z,79.80
2019-05-02T10:33:37.549Z,81.97
2019-05-02T10:36:11.943Z,74.37
2019-05-02T10:38:39.018Z,75.37
2019-05-02T10:41:09.275Z,79.17
2019-05-02T10:43:39.380Z,72.97
2019-05-02T10:46:27.915Z,86.13
2019-05-02T10:49:04.677Z,90.03
2019-05-02T10:51:41.952Z,84.77
2019-05-02T10:54:12.029Z,92.67
2019-05-02T10:56:42.428Z,92.53
2019-05-02T10:59:12.649Z,97.03
2019-05-02T11:02:02.400Z,94.17
2019-05-02T11:04:33.863Z,91.70
2019-05-02T11:07:04.388Z,109.53
2019-05-02T11:09:34.800Z,97.20
2019-05-02T11:12:06.689Z,99.97
2019-05-02T11:14:42.556Z,99.17
2019-05-02T11:17:20.345Z,98.87
2019-05-02T11:20:12.339Z,100.90
2019-05-02T11:22:42.862Z,94.67
2019-05-02T11:25:13.236Z,104.07
2019-05-02T11:27:43.653Z,102.23
2019-05-02T11:30:16.867Z,98.10
2019-05-02T11:32:48.131Z,99.83
2019-05-02T11:35:18.561Z,99.77
2019-05-02T11:37:48.738Z,96.53
2019-05-02T11:40:19.071Z,97.37
2019-05-02T11:42:49.453Z,95.20
2019-05-02T11:45:19.532Z,89.67
2019-05-02T11:47:49.953Z,90.33
2019-05-02T11:50:22.026Z,85.00
2019-05-02T11:52:53.839Z,81.57
2019-05-02T11:55:28.867Z,78.73
2019-05-02T11:57:55.890Z,71.87
2019-05-02T12:00:26.128Z,81.00
2019-05-02T12:03:17.519Z,72.40
2019-05-02T12:05:47.655Z,73.73
2019-05-02T12:08:17.743Z,75.97
2019-05-02T12:10:47.870Z,75.00
2019-05-02T12:13:18.013Z,85.90
2019-05-02T12:15:48.220Z,80.40
2019-05-02T12:18:20.652Z,76.80
2019-05-02T12:20:51.983Z,69.80
2019-05-02T12:23:22.624Z,71.73
2019-05-02T12:25:53.314Z,69.47
2019-05-02T12:28:23.376Z,70.57
2019-05-02T12:30:53.803Z,71.73
2019-05-02T12:33:25.615Z,66.47
2019-05-02T12:35:55.775Z,72.90
2019-05-02T12:38:25.845Z,58.00
2019-05-02T12:40:57.926Z,50.03
2019-05-02T12:43:27.653Z,45.43
2019-05-02T12:45:59.821Z,44.90
2019-05-02T12:48:29.589Z,48.27
2019-05-02T12:51:01.860Z,50.53
2019-05-02T12:53:32.608Z,45.53
2019-05-02T12:56:03.133Z,52.53
2019-05-02T12:58:33.399Z,56.30
2019-05-02T13:01:03.712Z,59.90
2019-05-02T13:03:51.787Z,59.23
2019-05-02T13:06:22.161Z,57.63
2019-05-02T13:08:52.814Z,54.40
2019-05-02T13:11:42.172Z,55.80
2019-05-02T13:14:19.039Z,57.00
2019-05-02T13:16:44.552Z,55.47
2019-05-02T13:19:14.818Z,59.93
2019-05-02T13:22:07.236Z,59.43
2019-05-02T13:24:42.204Z,53.77
2019-05-02T13:27:15.619Z,50.00
2019-05-02T13:29:46.891Z,53.43
2019-05-02T13:32:36.053Z,50.13
2019-05-02T13:35:39.593Z,47.93
2019-05-02T13:38:10.384Z,53.20
2019-05-02T13:40:44.857Z,49.57
2019-05-02T13:43:15.576Z,50.00
2019-05-02T13:46:13.666Z,43.27
2019-05-02T13:48:43.833Z,35.80
2019-05-02T13:51:13.966Z,34.67
2019-05-02T13:54:09.306Z,37.37
2019-05-02T13:56:48.052Z,33.93
2019-05-02T13:59:19.326Z,35.67
2019-05-02T14:01:52.693Z,33.37
2019-05-02T14:04:23.615Z,31.10
2019-05-02T14:06:54.253Z,26.87
2019-05-02T14:09:44.058Z,25.43
2019-05-02T14:12:36.139Z,25.17
2019-05-02T14:15:07.095Z,26.90
2019-05-02T14:17:37.205Z,25.47
2019-05-02T14:20:10.856Z,23.43
2019-05-02T14:22:39.591Z,22.87
2019-05-02T14:25:12.150Z,24.13
2019-05-02T14:27:47.034Z,21.33
2019-05-02T14:30:18.201Z,19.93
2019-05-02T14:32:48.242Z,21.10
2019-05-02T14:35:43.595Z,20.30
2019-05-02T14:38:14.719Z,19.30
2019-05-02T14:41:05.647Z,20.87
2019-05-02T14:43:54.141Z,19.30
2019-05-02T14:46:34.133Z,19.83
2019-05-02T14:48:59.956Z,19.77
2019-05-02T14:51:33.110Z,18.57
2019-05-02T14:54:07.907Z,17.57
2019-05-02T14:56:52.872Z,18.20
2019-05-02T14:59:23.295Z,17.07
2019-05-02T15:01:58.035Z,16.57
2019-05-02T15:04:28.230Z,16.90
2019-05-02T15:06:58.395Z,18.03
2019-05-02T15:09:28.457Z,18.00
2019-05-02T15:11:58.943Z,18.30
2019-05-02T15:14:32.651Z,17.43
2019-05-02T15:17:03.046Z,17.03
2019-05-02T15:19:33.599Z,16.43
2019-05-02T15:22:04.083Z,19.60
2019-05-02T15:24:37.341Z,18.70
2019-05-02T15:27:11.661Z,19.17
2019-05-02T15:29:37.892Z,17.57
2019-05-02T15:32:37.341Z,16.73
2019-05-02T15:35:26.889Z,17.63
2019-05-02T15:37:56.593Z,20.10
2019-05-02T15:40:43.358Z,22.07
2019-05-02T15:43:04.159Z,21.33
2019-05-02T15:45:36.759Z,22.37
2019-05-02T15:48:06.238Z,24.07
2019-05-02T15:50:39.817Z,20.10
2019-05-02T15:53:17.045Z,21.30
2019-05-02T15:55:50.101Z,19.47
2019-05-02T15:58:27.688Z,21.93
2019-05-02T16:01:26.649Z,19.93
2019-05-02T16:03:57.974Z,19.13
2019-05-02T16:06:31.727Z,16.87
2019-05-02T16:08:59.928Z,17.23
2019-05-02T16:11:32.079Z,17.57
2019-05-02T16:14:02.338Z,16.90
2019-05-02T16:16:36.618Z,16.33
2019-05-02T16:19:04.436Z,18.00
2019-05-02T16:21:45.790Z,17.47
2019-05-02T16:24:25.903Z,16.30
2019-05-02T16:26:57.237Z,16.03
2019-05-02T16:29:29.132Z,17.33
2019-05-02T16:32:05.641Z,15.63
2019-05-02T16:34:54.247Z,16.40
2019-05-02T16:37:22.608Z,17.13
2019-05-02T16:39:52.951Z,15.87
2019-05-02T16:42:26.969Z,16.63
2019-05-02T16:44:57.163Z,16.70
2019-05-02T16:47:27.279Z,17.33
2019-05-02T16:49:57.364Z,17.93
2019-05-02T16:52:27.820Z,19.73
2019-05-02T16:54:58.371Z,20.20
2019-05-02T16:57:28.512Z,19.80
2019-05-02T17:00:06.038Z,25.37
2019-05-02T17:02:32.591Z,25.63
2019-05-02T17:05:08.267Z,29.80
2019-05-02T17:08:02.293Z,32.67
2019-05-02T17:10:36.247Z,30.73
2019-05-02T17:13:06.346Z,31.50
2019-05-02T17:15:37.400Z,34.43
2019-05-02T17:18:18.013Z,31.97
2019-05-02T17:20:39.907Z,35.33
2019-05-02T17:23:10.084Z,37.00
2019-05-02T17:25:41.613Z,35.33
2019-05-02T17:28:13.348Z,31.87
2019-05-02T17:30:43.776Z,36.80
2019-05-02T17:33:16.219Z,35.13
2019-05-02T17:35:54.359Z,32.97
2019-05-02T17:38:19.188Z,33.20
2019-05-02T17:40:52.371Z,33.40
2019-05-02T17:43:22.794Z,33.90
2019-05-02T17:45:53.949Z,34.90
2019-05-02T17:48:24.195Z,35.97
2019-05-02T17:51:19.198Z,36.97
2019-05-02T17:53:49.973Z,35.27
2019-05-02T17:56:23.169Z,38.37
2019-05-02T17:58:57.886Z,37.53
2019-05-02T18:01:35.060Z,40.83
2019-05-02T18:04:06.745Z,41.27
2019-05-02T18:06:36.147Z,40.53
2019-05-02T18:09:08.851Z,42.33
2019-05-02T18:11:39.216Z,43.63
2019-05-02T18:14:16.093Z,43.47
2019-05-02T18:16:41.992Z,41.70
2019-05-02T18:19:16.017Z,38.00
2019-05-02T18:21:46.210Z,41.20
2019-05-02T18:24:16.880Z,37.03
2019-05-02T18:26:47.134Z,36.63
2019-05-02T18:29:17.449Z,40.60
2019-05-02T18:31:47.899Z,38.33
2019-05-02T18:34:21.053Z,36.80
2019-05-02T18:36:50.077Z,36.27
2019-05-02T18:39:22.083Z,31.37
2019-05-02T18:41:55.030Z,32.67
2019-05-02T18:44:25.212Z,30.40
2019-05-02T18:46:57.843Z,26.77
2019-05-02T18:49:32.123Z,32.87
2019-05-02T18:52:02.677Z,31.93
2019-05-02T18:54:33.805Z,34.83
2019-05-02T18:57:04.308Z,32.17
2019-05-02T18:59:34.536Z,30.17
2019-05-02T19:02:04.898Z,32.17
2019-05-02T19:04:39.385Z,32.33
2019-05-02T19:07:07.581Z,40.93
2019-05-02T19:09:48.419Z,34.63
2019-05-02T19:12:21.505Z,34.10
2019-05-02T19:14:42.649Z,34.73
2019-05-02T19:17:13.694Z,36.97
2019-05-02T19:19:43.857Z,33.37
2019-05-02T19:22:17.038Z,33.13
2019-05-02T19:24:46.111Z,29.53
2019-05-02T19:27:36.973Z,22.80
2019-05-02T19:30:09.958Z,21.60
2019-05-02T19:32:43.433Z,24.93
2019-05-02T19:35:18.332Z,21.80
2019-05-02T19:37:49.019Z,22.67
2019-05-02T19:40:28.162Z,23.70
2019-05-02T19:43:06.005Z,19.10
2019-05-02T19:45:32.760Z,23.00
2019-05-02T19:48:04.184Z,16.90
2019-05-02T19:50:43.767Z,21.00
2019-05-02T19:53:18.072Z,17.73
2019-05-02T19:55:45.340Z,19.40
2019-05-02T19:58:17.022Z,20.80
2019-05-02T20:00:52.237Z,16.63
2019-05-02T20:03:25.917Z,18.33
2019-05-02T20:05:56.698Z,21.00
2019-05-02T20:08:29.048Z,20.53
2019-05-02T20:11:02.129Z,22.00
2019-05-02T20:13:33.188Z,19.07
2019-05-02T20:16:17.199Z,18.30
2019-05-02T20:18:48.808Z,20.60
2019-05-02T20:21:27.803Z,19.73
2019-05-02T20:24:01.322Z,20.73
2019-05-02T20:26:32.652Z,17.03
2019-05-02T20:29:04.139Z,19.10
2019-05-02T20:31:37.799Z,17.77
2019-05-02T20:34:08.789Z,16.63
2019-05-02T20:36:39.945Z,18.33
2019-05-02T20:39:12.007Z,19.53
2019-05-02T20:41:42.916Z,16.07
2019-05-02T20:44:13.167Z,16.90
2019-05-02T20:46:44.551Z,19.10
2019-05-02T20:49:16.725Z,17.03
2019-05-02T20:51:48.489Z,16.87
2019-05-02T20:54:20.815Z,18.57
2019-05-02T20:56:52.104Z,16.53
2019-05-02T20:59:23.454Z,16.93
2019-05-02T21:01:55.427Z,14.90
2019-05-02T21:04:26.272Z,20.13
2019-05-02T21:07:28.408Z,19.60
2019-05-02T21:10:07.178Z,16.00
2019-05-02T21:12:38.172Z,18.77
2019-05-02T21:15:09.992Z,14.87
2019-05-02T21:17:42.188Z,14.90
2019-05-02T21:20:13.678Z,16.23
2019-05-02T21:22:47.618Z,15.90
2019-05-02T21:25:19.052Z,19.57
2019-05-02T21:27:52.229Z,19.80
2019-05-02T21:30:27.887Z,22.70
2019-05-02T21:33:02.610Z,30.93
2019-05-02T21:35:33.154Z,34.87
2019-05-02T21:38:03.455Z,33.80
2019-05-02T21:43:14.565Z,21.20
2019-05-02T21:45:44.771Z,19.33
2019-05-02T21:48:14.937Z,21.27
2019-05-02T21:50:50.206Z,19.33
2019-05-02T21:53:55.139Z,20.37
2019-05-02T21:56:39.100Z,21.47
2019-05-02T21:59:12.234Z,18.77
2019-05-02T22:01:51.985Z,18.43
2019-05-02T22:04:22.727Z,21.10
2019-05-02T22:06:53.161Z,19.93
2019-05-02T22:09:23.407Z,22.20
2019-05-02T22:11:55.282Z,23.20
2019-05-02T22:14:25.517Z,22.07
2019-05-02T22:16:55.672Z,22.27
2019-05-02T22:19:26.054Z,23.43
2019-05-02T22:21:56.273Z,25.07
2019-05-02T22:24:26.645Z,22.33
2019-05-02T22:26:56.827Z,23.70
2019-05-02T22:29:28.683Z,27.00
2019-05-02T22:31:58.844Z,25.80
2019-05-02T22:34:29.056Z,27.40
2019-05-02T22:36:59.476Z,28.00
2019-05-02T22:39:42.052Z,26.70
2019-05-02T22:42:12.959Z,29.53
2019-05-02T22:44:43.229Z,30.80
2019-05-02T22:47:14.076Z,28.67
2019-05-02T22:49:44.307Z,33.87
2019-05-02T22:52:14.602Z,28.33
2019-05-02T22:54:44.794Z,35.30
2019-05-02T22:57:14.941Z,34.03
2019-05-02T22:59:45.372Z,32.87
2019-05-02T23:02:15.527Z,33.27
2019-05-02T23:04:45.722Z,32.27
2019-05-02T23:07:17.716Z,31.73
2019-05-02T23:09:48.149Z,34.27
2019-05-02T23:12:18.387Z,32.20
2019-05-02T23:14:48.576Z,30.03
2019-05-02T23:17:19.177Z,32.40
2019-05-02T23:19:49.348Z,31.73
2019-05-02T23:22:19.507Z,29.60
2019-05-02T23:25:11.671Z,26.10
2019-05-02T23:27:47.725Z,25.30
2019-05-02T23:30:22.567Z,26.57
2019-05-02T23:32:52.914Z,28.47
2019-05-02T23:35:23.090Z,28.23
2019-05-02T23:37:53.568Z,30.50
2019-05-02T23:40:23.815Z,26.47
2019-05-02T23:42:54.143Z,29.23
2019-05-02T23:45:24.478Z,31.10
2019-05-02T23:47:54.645Z,28.20
2019-05-02T23:50:24.910Z,29.90
2019-05-02T23:52:55.584Z,26.97
2019-05-02T23:55:25.794Z,29.97
2019-05-02T23:57:56.600Z,30.73
